Terminal Aerodrome Forecast
Issued by NWS Green Bay, WI

Home | Current Version | Previous Version | Graphics & Text | Print | Product List | Glossary On
Versions: 1 2 3 4 5 6 7 8 9 10 11 12 13 14 15 16 17 18 19
000
FTUS43 KGRB 191135
TAFGRB
TAF
KGRB 191135Z 1912/2012 06004KT P6SM BKN100
     FM191500 10006KT P6SM SCT070
     FM200700 13004KT P6SM SCT100 SCT200
      TEMPO 2008/2012 3SM BR SCT010 BKN100=

USA.gov is the U.S. government's official web portal to all federal, state and local government web resources and services.